Time;durP1;ratioP1;P1;durP2;ratioP2;P2;SDS_P1;SDS_P2;PMS_P1;PMS_P2;Temp;Humidity;BMP_temperature;BMP_pressure;BME280_temperature;BME280_humidity;BME280_pressure;Samples;Min_cycle;Max_cycle;Signal;HPM_P1;HPM_P2
2023/03/22 00:01:11;;;;;;;23.50;8.50;;;;;;;10.33;100.00;100670.81;5072549;28;20529;-67
2023/03/22 00:03:38;;;;;;;19.10;8.50;;;;;;;10.28;100.00;100676.31;5072813;28;20469;-67
2023/03/22 00:06:05;;;;;;;18.30;6.90;;;;;;;10.27;100.00;100673.91;5073199;28;20439;-67
2023/03/22 00:08:32;;;;;;;17.50;8.20;;;;;;;10.23;100.00;100672.88;5072881;28;20457;-66
2023/03/22 00:10:58;;;;;;;18.47;8.20;;;;;;;10.17;100.00;100671.34;5072906;28;20612;-67
2023/03/22 00:13:26;;;;;;;12.00;6.30;;;;;;;10.13;100.00;100668.41;5072994;28;20449;-67
2023/03/22 00:15:56;;;;;;;14.07;6.63;;;;;;;10.08;100.00;100665.78;5072643;28;20541;-66
2023/03/22 00:18:23;;;;;;;16.47;6.77;;;;;;;10.05;100.00;100664.50;5072514;28;20493;-67
2023/03/22 00:20:50;;;;;;;13.77;6.87;;;;;;;10.02;100.00;100661.56;5072639;28;20816;-67
2023/03/22 00:23:17;;;;;;;13.30;5.90;;;;;;;9.94;100.00;100654.13;5072942;28;20533;-67
2023/03/22 00:25:44;;;;;;;14.80;7.07;;;;;;;9.98;100.00;100655.16;5073008;28;20441;-68
2023/03/22 00:28:11;;;;;;;15.37;6.37;;;;;;;9.95;100.00;100650.31;5072621;28;20907;-67
2023/03/22 00:30:40;;;;;;;15.27;6.10;;;;;;;9.91;100.00;100652.81;5072806;28;20488;-68
2023/03/22 00:33:06;;;;;;;13.27;6.57;;;;;;;9.85;100.00;100652.09;5072724;28;20521;-67
2023/03/22 00:35:33;;;;;;;13.03;6.67;;;;;;;9.82;100.00;100649.16;5072600;28;20790;-67
2023/03/22 00:38:05;;;;;;;14.30;6.70;;;;;;;9.77;100.00;100643.81;5072177;28;20552;-67
2023/03/22 00:40:32;;;;;;;15.93;7.00;;;;;;;9.76;100.00;100645.72;5073032;28;20430;-67
2023/03/22 00:42:58;;;;;;;11.70;5.67;;;;;;;9.71;100.00;100645.81;5072387;28;21029;-67
2023/03/22 00:45:25;;;;;;;12.80;6.20;;;;;;;9.68;100.00;100642.88;5072635;28;20447;-67
2023/03/22 00:47:53;;;;;;;11.07;5.90;;;;;;;9.65;100.00;100638.88;5072464;28;20568;-67
2023/03/22 00:50:20;;;;;;;13.67;6.87;;;;;;;9.64;100.00;100639.97;5072627;28;20453;-67
2023/03/22 00:52:47;;;;;;;13.67;6.17;;;;;;;9.58;100.00;100641.13;5072676;28;20525;-67
2023/03/22 00:55:13;;;;;;;16.50;7.70;;;;;;;9.54;100.00;100640.91;5072755;28;20441;-67
2023/03/22 00:57:40;;;;;;;15.73;7.40;;;;;;;9.57;100.00;100644.94;5076050;28;20463;-68
2023/03/22 01:00:11;;;;;;;15.90;7.00;;;;;;;9.62;100.00;100642.16;5075823;28;20481;-67
2023/03/22 01:02:38;;;;;;;16.40;6.90;;;;;;;9.70;100.00;100632.59;5075911;28;20422;-68
2023/03/22 01:05:07;;;;;;;14.20;7.60;;;;;;;9.70;100.00;100630.69;5075845;28;20491;-68
2023/03/22 01:07:37;;;;;;;12.67;6.13;;;;;;;9.68;100.00;100626.66;5075389;28;20834;-67
2023/03/22 01:10:05;;;;;;;15.70;6.07;;;;;;;9.67;100.00;100620.44;5075785;28;20445;-68
2023/03/22 01:12:31;;;;;;;15.07;7.00;;;;;;;9.69;100.00;100620.94;5075401;28;20445;-68
2023/03/22 01:14:58;;;;;;;12.87;6.17;;;;;;;9.74;100.00;100620.06;5075349;28;20436;-68
2023/03/22 01:17:24;;;;;;;12.03;6.60;;;;;;;9.74;100.00;100620.06;5075092;28;20862;-68
2023/03/22 01:19:51;;;;;;;16.80;6.10;;;;;;;9.74;100.00;100617.34;5076925;28;20485;-67
2023/03/22 01:22:19;;;;;;;14.07;6.70;;;;;;;9.73;100.00;100616.56;5075496;28;20440;-67
2023/03/22 01:24:45;;;;;;;19.87;7.17;;;;;;;9.73;100.00;100607.63;5075664;28;20437;-67
2023/03/22 01:27:12;;;;;;;25.93;8.10;;;;;;;9.70;100.00;100611.75;5075031;28;20544;-68
2023/03/22 01:29:38;;;;;;;17.80;6.73;;;;;;;9.72;100.00;100611.44;5075468;28;20867;-67
2023/03/22 01:32:06;;;;;;;14.00;7.03;;;;;;;9.69;100.00;100607.41;5075364;28;20819;-67
2023/03/22 01:34:32;;;;;;;18.03;6.93;;;;;;;9.67;100.00;100600.72;5075363;28;20437;-67
2023/03/22 01:36:59;;;;;;;19.97;7.80;;;;;;;9.64;100.00;100602.09;5074830;28;20462;-67
2023/03/22 01:39:27;;;;;;;14.87;6.60;;;;;;;9.65;100.00;100597.50;5075280;28;20589;-67
2023/03/22 01:41:53;;;;;;;14.13;7.07;;;;;;;9.59;100.00;100594.88;5075199;28;20579;-67
2023/03/22 01:44:21;;;;;;;14.57;7.00;;;;;;;9.62;100.00;100590.78;5075080;28;20445;-67
2023/03/22 01:46:50;;;;;;;15.30;7.33;;;;;;;9.56;100.00;100595.47;5074986;28;20464;-67
2023/03/22 01:49:21;;;;;;;14.40;6.00;;;;;;;9.56;100.00;100586.53;5074991;28;20469;-67
2023/03/22 01:51:51;;;;;;;20.47;7.17;;;;;;;9.53;100.00;100581.72;5074710;28;20505;-67
2023/03/22 01:54:24;;;;;;;17.77;8.10;;;;;;;9.54;100.00;100580.63;5074894;28;20528;-67
2023/03/22 01:56:52;;;;;;;15.27;7.03;;;;;;;9.52;100.00;100582.84;5074870;28;20519;-67
2023/03/22 01:59:19;;;;;;;18.33;7.30;;;;;;;9.54;100.00;100584.13;5074434;28;20576;-67
2023/03/22 02:01:46;;;;;;;16.57;6.90;;;;;;;9.53;100.00;100582.53;5074749;28;20456;-67
2023/03/22 02:04:16;;;;;;;14.80;6.10;;;;;;;9.56;100.00;100575.72;5074434;28;20938;-67
2023/03/22 02:06:45;;;;;;;16.07;7.67;;;;;;;9.56;100.00;100578.41;5074603;28;20471;-67
2023/03/22 02:09:16;;;;;;;16.33;7.47;;;;;;;9.57;100.00;100590.88;5074222;28;20445;-67
2023/03/22 02:11:49;;;;;;;16.33;7.03;;;;;;;9.54;100.00;100583.34;5074319;28;20953;-67
2023/03/22 02:14:30;;;;;;;14.33;7.63;;;;;;;9.59;100.00;100573.22;5074461;28;20422;-67
2023/03/22 02:17:12;;;;;;;17.00;8.00;;;;;;;9.61;100.00;100578.38;5074241;28;20573;-67
2023/03/22 02:20:09;;;;;;;15.90;7.47;;;;;;;9.58;100.00;100568.13;5074348;28;20552;-67
2023/03/22 02:23:02;;;;;;;15.93;6.90;;;;;;;9.55;100.00;100572.22;5074056;28;20445;-67
2023/03/22 02:25:59;;;;;;;14.13;6.13;;;;;;;9.49;100.00;100568.00;5030100;28;20445;-67
2023/03/22 02:28:36;;;;;;;16.40;7.50;;;;;;;9.48;100.00;100565.59;5073836;28;20472;-67
2023/03/22 02:31:36;;;;;;;17.83;6.80;;;;;;;9.48;100.00;100560.97;5074231;28;20802;-66
2023/03/22 02:34:28;;;;;;;15.77;8.00;;;;;;;9.50;100.00;100561.47;5033629;28;20954;-67
2023/03/22 02:37:11;;;;;;;20.40;7.87;;;;;;;9.50;100.00;100564.19;5030351;28;20504;-67
2023/03/22 02:39:45;;;;;;;16.03;7.10;;;;;;;9.57;100.00;100569.22;5073915;28;20531;-67
2023/03/22 02:42:27;;;;;;;15.23;7.40;;;;;;;9.59;100.00;100572.44;5073981;28;20440;-66
2023/03/22 02:45:01;;;;;;;18.47;8.30;;;;;;;9.58;100.00;100557.31;5073985;28;20434;-66
2023/03/22 02:47:38;;;;;;;19.77;7.87;;;;;;;9.56;100.00;100557.63;5073884;28;20551;-67
2023/03/22 02:50:11;;;;;;;15.83;7.30;;;;;;;9.54;100.00;100559.00;5073777;28;20945;-68
2023/03/22 02:52:42;;;;;;;15.83;7.50;;;;;;;9.54;100.00;100565.22;5073473;28;20458;-70
2023/03/22 02:55:17;;;;;;;13.17;6.57;;;;;;;9.53;100.00;100565.50;5073467;28;20421;-70
2023/03/22 02:57:49;;;;;;;13.43;6.60;;;;;;;9.45;100.00;100560.75;5073327;28;20452;-69
2023/03/22 03:00:17;;;;;;;13.60;6.60;;;;;;;9.47;100.00;100561.25;5073477;28;20469;-68
2023/03/22 03:02:48;;;;;;;16.17;7.40;;;;;;;9.45;100.00;100558.06;5073835;28;20430;-68
2023/03/22 03:05:18;;;;;;;18.87;8.97;;;;;;;9.46;100.00;100556.97;5073645;28;20429;-67
2023/03/22 03:07:50;;;;;;;14.57;6.77;;;;;;;9.48;100.00;100554.78;5073145;28;20469;-67
2023/03/22 03:10:20;;;;;;;12.17;6.30;;;;;;;9.49;100.00;100553.69;5073516;28;20838;-67
2023/03/22 03:12:47;;;;;;;16.40;7.60;;;;;;;9.47;100.00;100556.66;5073514;28;20464;-67
2023/03/22 03:15:17;;;;;;;17.80;7.63;;;;;;;9.44;100.00;100556.47;5073642;28;20437;-67
2023/03/22 03:17:57;;;;;;;14.70;7.53;;;;;;;9.39;100.00;100549.22;5073045;28;20473;-68
2023/03/22 03:20:33;;;;;;;20.43;8.80;;;;;;;9.41;100.00;100557.03;5073266;28;20504;-67
2023/03/22 03:23:12;;;;;;;15.70;7.33;;;;;;;9.41;100.00;100560.53;5073022;28;20910;-67
2023/03/22 03:25:47;;;;;;;17.00;7.73;;;;;;;9.47;100.00;100563.97;5072954;28;20911;-67
2023/03/22 03:28:36;;;;;;;22.00;9.43;;;;;;;9.51;100.00;100564.97;5073186;28;20461;-67
2023/03/22 03:31:10;;;;;;;20.20;8.33;;;;;;;9.53;100.00;100558.19;5073243;28;20421;-64
2023/03/22 03:33:45;;;;;;;18.23;7.33;;;;;;;9.57;100.00;100563.81;5072958;28;20495;-67
2023/03/22 03:36:17;;;;;;;16.80;7.80;;;;;;;9.61;100.00;100570.25;5073217;28;20451;-67
2023/03/22 03:38:50;;;;;;;14.73;7.20;;;;;;;9.63;100.00;100551.81;5073044;28;20469;-67
2023/03/22 03:41:22;;;;;;;14.70;7.07;;;;;;;9.64;100.00;100553.41;5073141;28;20426;-67
2023/03/22 03:43:50;;;;;;;17.93;8.47;;;;;;;9.61;100.00;100551.31;5072907;28;20520;-68
2023/03/22 03:46:17;;;;;;;19.93;8.63;;;;;;;9.61;100.00;100554.03;5072800;28;20480;-68
2023/03/22 03:48:47;;;;;;;21.83;7.73;;;;;;;9.60;100.00;100560.50;5072641;28;20464;-68
2023/03/22 03:51:14;;;;;;;14.30;7.10;;;;;;;9.62;100.00;100547.50;5072817;28;20434;-68
2023/03/22 03:53:41;;;;;;;16.40;7.30;;;;;;;9.64;100.00;100555.31;5072688;28;20972;-68
2023/03/22 03:56:08;;;;;;;17.27;8.13;;;;;;;9.64;100.00;100558.81;5072755;28;20477;-68
2023/03/22 03:58:37;;;;;;;15.33;7.10;;;;;;;9.66;100.00;100556.66;5072859;28;20465;-68
2023/03/22 04:01:03;;;;;;;17.40;8.37;;;;;;;9.67;100.00;100560.94;5072544;28;21067;-67
2023/03/22 04:03:30;;;;;;;17.07;8.47;;;;;;;9.65;100.00;100557.75;5072922;28;20820;-68
2023/03/22 04:05:58;;;;;;;20.07;8.30;;;;;;;9.69;100.00;100571.47;5072600;28;21026;-68
2023/03/22 04:08:25;;;;;;;16.63;7.50;;;;;;;9.67;100.00;100558.25;5072812;28;20460;-68
2023/03/22 04:10:52;;;;;;;20.87;8.17;;;;;;;9.69;100.00;100558.75;5072838;28;20456;-67
2023/03/22 04:13:20;;;;;;;15.80;7.93;;;;;;;9.69;100.00;100557.94;5072574;28;20440;-67
2023/03/22 04:15:51;;;;;;;19.30;7.57;;;;;;;9.68;100.00;100554.44;5072488;28;20449;-67
2023/03/22 04:18:18;;;;;;;17.57;7.40;;;;;;;9.66;100.00;100555.84;5072466;28;20564;-67
2023/03/22 04:20:45;;;;;;;15.00;7.37;;;;;;;9.69;100.00;100556.03;5072678;28;20479;-67
2023/03/22 04:23:12;;;;;;;18.10;8.40;;;;;;;9.69;100.00;100560.63;5072749;28;20444;-67
2023/03/22 04:25:39;;;;;;;16.43;8.33;;;;;;;9.64;100.00;100558.81;5072671;28;20433;-67
2023/03/22 04:28:06;;;;;;;14.57;7.73;;;;;;;9.63;100.00;100553.72;5072576;28;20519;-67
2023/03/22 04:30:35;;;;;;;20.00;8.67;;;;;;;9.62;100.00;100550.22;5073406;28;20445;-68
2023/03/22 04:33:05;;;;;;;17.83;7.60;;;;;;;9.63;100.00;100556.44;5076507;28;20452;-67
2023/03/22 04:35:33;;;;;;;15.40;8.20;;;;;;;9.62;100.00;100547.50;5076458;28;20429;-67
2023/03/22 04:38:00;;;;;;;15.00;6.93;;;;;;;9.62;100.00;100549.41;5076223;28;20487;-67
2023/03/22 04:40:30;;;;;;;19.47;8.70;;;;;;;9.64;100.00;100545.31;5076172;28;20507;-66
2023/03/22 04:42:57;;;;;;;21.77;8.53;;;;;;;9.62;100.00;100544.81;5076257;28;20445;-67
2023/03/22 04:45:28;;;;;;;18.73;8.27;;;;;;;9.64;100.00;100536.38;5076225;28;20451;-67
2023/03/22 04:47:54;;;;;;;13.03;6.27;;;;;;;9.60;100.00;100536.19;5076141;28;20469;-67
2023/03/22 04:50:22;;;;;;;19.40;7.83;;;;;;;9.62;100.00;100535.91;5075745;28;20444;-66
2023/03/22 04:52:50;;;;;;;17.07;8.00;;;;;;;9.63;100.00;100530.19;5076084;28;20540;-66
2023/03/22 04:55:17;;;;;;;19.13;8.07;;;;;;;9.63;100.00;100527.47;5076041;28;20460;-66
2023/03/22 04:57:43;;;;;;;22.97;8.40;;;;;;;9.65;100.00;100528.00;5075921;28;20469;-67
2023/03/22 05:00:10;;;;;;;14.57;7.20;;;;;;;9.64;100.00;100520.97;5075899;28;20573;-68
2023/03/22 05:02:39;;;;;;;15.13;7.87;;;;;;;9.67;100.00;100525.00;5075903;28;20441;-67
2023/03/22 05:05:06;;;;;;;13.63;6.50;;;;;;;9.64;100.00;100526.38;5075839;28;20441;-67
2023/03/22 05:07:35;;;;;;;18.80;8.90;;;;;;;9.64;100.00;100523.66;5075763;28;20464;-67
2023/03/22 05:10:02;;;;;;;16.97;7.53;;;;;;;9.63;100.00;100524.78;5075805;28;20437;-67
2023/03/22 05:12:28;;;;;;;17.50;8.00;;;;;;;9.64;100.00;100523.66;5075427;28;20477;-67
2023/03/22 05:14:55;;;;;;;15.30;6.23;;;;;;;9.62;100.00;100522.38;5075682;28;20473;-67
2023/03/22 05:17:22;;;;;;;14.40;6.57;;;;;;;9.60;100.00;100517.25;5075193;28;21027;-67
2023/03/22 05:19:48;;;;;;;16.93;8.13;;;;;;;9.60;100.00;100519.94;5075454;28;20487;-67
2023/03/22 05:22:15;;;;;;;15.33;6.40;;;;;;;9.59;100.00;100518.34;5075501;28;20476;-67
2023/03/22 05:24:43;;;;;;;14.60;7.33;;;;;;;9.61;100.00;100521.56;5075473;28;20476;-67
2023/03/22 05:27:09;;;;;;;17.10;7.83;;;;;;;9.63;100.00;100522.06;5075411;28;20507;-67
2023/03/22 05:29:36;;;;;;;14.20;6.83;;;;;;;9.61;100.00;100521.56;5075657;28;20433;-67
2023/03/22 05:32:03;;;;;;;16.60;8.90;;;;;;;9.59;100.00;100523.75;5075314;28;20453;-67
2023/03/22 05:34:34;;;;;;;20.10;8.27;;;;;;;9.59;100.00;100518.34;5075360;28;20435;-67
2023/03/22 05:37:01;;;;;;;24.93;8.57;;;;;;;9.57;100.00;100518.66;5074954;28;20978;-67
2023/03/22 05:39:27;;;;;;;18.87;7.13;;;;;;;9.57;100.00;100518.66;5075133;28;20528;-67
2023/03/22 05:41:55;;;;;;;20.00;7.97;;;;;;;9.56;100.00;100525.16;5074167;28;20523;-67
2023/03/22 05:44:22;;;;;;;17.40;8.03;;;;;;;9.49;100.00;100521.22;5074874;28;20520;-67
2023/03/22 05:46:49;;;;;;;13.60;6.70;;;;;;;9.51;100.00;100522.53;5074981;28;20466;-67
2023/03/22 05:49:15;;;;;;;17.63;8.40;;;;;;;9.54;100.00;100521.13;5075040;28;20488;-67
2023/03/22 05:51:42;;;;;;;19.00;9.13;;;;;;;9.60;100.00;100519.94;5074674;28;20524;-67
2023/03/22 05:54:09;;;;;;;21.43;8.33;;;;;;;9.57;100.00;100513.25;5074709;28;20957;-67
2023/03/22 05:56:38;;;;;;;16.33;7.10;;;;;;;9.58;100.00;100514.03;5074776;28;20533;-67
2023/03/22 05:59:06;;;;;;;16.13;7.37;;;;;;;9.64;100.00;100507.44;5074880;28;20503;-67
2023/03/22 06:01:33;;;;;;;16.37;8.77;;;;;;;9.66;100.00;100502.56;5074421;28;21020;-66
2023/03/22 06:04:00;;;;;;;21.23;8.50;;;;;;;9.70;100.00;100505.47;5074734;28;20468;-67
2023/03/22 06:06:27;;;;;;;18.33;9.73;;;;;;;9.70;100.00;100502.78;5074682;28;20812;-66
2023/03/22 06:08:54;;;;;;;15.03;8.27;;;;;;;9.70;100.00;100502.78;5074614;28;20535;-67
2023/03/22 06:11:21;;;;;;;26.77;7.90;;;;;;;9.72;100.00;100505.97;5074351;28;20465;-66
2023/03/22 06:13:48;;;;;;;17.70;8.03;;;;;;;9.72;100.00;100505.97;5074232;28;20961;-66
2023/03/22 06:16:16;;;;;;;18.93;8.27;;;;;;;9.74;100.00;100507.28;5074517;28;20445;-67
2023/03/22 06:18:42;;;;;;;25.83;9.57;;;;;;;9.73;100.00;100508.38;5074166;28;20473;-67
2023/03/22 06:21:09;;;;;;;18.53;7.90;;;;;;;9.75;100.00;100513.50;5074319;28;20489;-67
2023/03/22 06:23:36;;;;;;;17.67;8.30;;;;;;;9.79;100.00;100517.22;5074505;28;20884;-67
2023/03/22 06:26:02;;;;;;;16.90;7.13;;;;;;;9.81;100.00;100517.72;5074523;28;20448;-70
2023/03/22 06:28:29;;;;;;;26.67;9.30;;;;;;;9.80;100.00;100519.63;5074254;28;20809;-68
2023/03/22 06:30:55;;;;;;;16.80;7.80;;;;;;;9.84;100.00;100515.22;5074472;28;20528;-67
2023/03/22 06:33:23;;;;;;;22.83;8.30;;;;;;;9.85;100.00;100511.41;5074318;28;20453;-68
2023/03/22 06:35:50;;;;;;;19.60;7.80;;;;;;;9.88;100.00;100515.44;5074193;28;20447;-67
2023/03/22 06:38:16;;;;;;;18.97;8.60;;;;;;;9.91;100.00;100520.22;5073954;28;20465;-68
2023/03/22 06:40:43;;;;;;;20.73;8.70;;;;;;;9.93;100.00;100522.66;5073955;28;20576;-67
2023/03/22 06:43:10;;;;;;;19.27;8.30;;;;;;;9.97;100.00;100521.75;5074176;28;20548;-67
2023/03/22 06:45:36;;;;;;;22.77;8.00;;;;;;;9.99;100.00;100521.44;5073565;28;20538;-68
2023/03/22 06:48:03;;;;;;;21.00;8.67;;;;;;;9.96;100.00;100520.16;5073860;28;20556;-68
2023/03/22 06:50:31;;;;;;;17.77;6.53;;;;;;;9.96;100.00;100525.56;5073815;28;20438;-67
2023/03/22 06:52:57;;;;;;;18.10;8.30;;;;;;;10.02;100.00;100526.28;5073155;28;20984;-67
2023/03/22 06:55:25;;;;;;;22.10;7.60;;;;;;;10.09;100.00;100524.78;5073629;28;20815;-67
2023/03/22 06:57:51;;;;;;;19.87;8.33;;;;;;;10.06;100.00;100530.78;5073618;28;20548;-68
2023/03/22 07:00:18;;;;;;;18.27;7.60;;;;;;;10.11;100.00;100524.47;5073539;28;20568;-67
2023/03/22 07:02:45;;;;;;;14.10;6.77;;;;;;;10.19;100.00;100523.78;5073587;28;20469;-68
2023/03/22 07:05:11;;;;;;;17.70;6.50;;;;;;;10.27;100.00;100528.53;5073514;28;20437;-71
2023/03/22 07:07:39;;;;;;;16.17;7.30;;;;;;;10.32;100.00;100525.72;5073417;28;20457;-70
2023/03/22 07:10:07;;;;;;;18.30;7.47;;;;;;;10.38;100.00;100528.34;5073517;28;20536;-67
2023/03/22 07:12:34;;;;;;;18.50;7.37;;;;;;;10.45;100.00;100523.34;5073464;28;20437;-67
2023/03/22 07:15:00;;;;;;;15.33;6.63;;;;;;;10.50;100.00;100523.22;5073389;28;20827;-68
2023/03/22 07:17:27;;;;;;;19.97;8.40;;;;;;;10.53;100.00;100519.88;5073073;28;20477;-68
2023/03/22 07:19:54;;;;;;;17.30;7.73;;;;;;;10.61;100.00;100524.59;5074608;28;20437;-68
2023/03/22 07:22:21;;;;;;;16.83;7.70;;;;;;;10.67;100.00;100526.13;5073323;28;20473;-71
2023/03/22 07:24:49;;;;;;;20.07;7.70;;;;;;;10.74;100.00;100523.78;5072942;28;20441;-68
2023/03/22 07:27:16;;;;;;;17.00;7.93;;;;;;;10.76;100.00;100521.59;5072969;28;20500;-69
2023/03/22 07:29:42;;;;;;;18.57;7.00;;;;;;;10.77;100.00;100512.34;5073299;28;20528;-69
2023/03/22 07:32:10;;;;;;;13.30;6.93;;;;;;;10.79;100.00;100509.31;5073194;28;20476;-69
2023/03/22 07:34:36;;;;;;;14.90;6.50;;;;;;;10.86;100.00;100505.09;5073190;28;20471;-69
2023/03/22 07:37:03;;;;;;;15.87;6.33;;;;;;;10.89;100.00;100502.88;5072758;28;20465;-69
2023/03/22 07:39:31;;;;;;;18.10;7.37;;;;;;;10.81;100.00;100505.22;5072754;28;20826;-69
2023/03/22 07:41:59;;;;;;;17.27;6.97;;;;;;;10.83;100.00;100505.69;5073170;28;20516;-70
2023/03/22 07:44:26;;;;;;;15.60;7.07;;;;;;;10.84;100.00;100496.47;5073190;28;20457;-70
2023/03/22 07:46:52;;;;;;;16.90;8.07;;;;;;;10.89;100.00;100494.75;5072710;28;20993;-69
2023/03/22 07:49:19;;;;;;;14.37;7.27;;;;;;;10.95;100.00;100504.38;5073133;28;20445;-68
2023/03/22 07:51:45;;;;;;;16.50;6.70;;;;;;;11.02;100.00;100499.34;5073009;28;20444;-68
2023/03/22 07:54:12;;;;;;;16.13;7.00;;;;;;;11.09;100.00;100502.44;5072955;28;20446;-69
2023/03/22 07:56:39;;;;;;;14.33;5.97;;;;;;;11.21;100.00;100502.69;5072878;28;20441;-69
2023/03/22 07:59:06;;;;;;;14.83;7.40;;;;;;;11.29;100.00;100496.53;5072981;28;20443;-69
2023/03/22 08:01:33;;;;;;;18.00;7.37;;;;;;;11.43;100.00;100501.91;5072892;28;20485;-68
2023/03/22 08:04:00;;;;;;;12.63;6.80;;;;;;;11.49;100.00;100502.56;5073004;28;20441;-69
2023/03/22 08:06:27;;;;;;;14.50;6.00;;;;;;;11.55;100.00;100496.72;5075187;28;20452;-70
2023/03/22 08:08:53;;;;;;;13.90;6.23;;;;;;;11.64;100.00;100491.31;5076944;28;20528;-69
2023/03/22 08:11:20;;;;;;;14.93;6.77;;;;;;;11.68;100.00;100499.66;5077054;28;20441;-69
2023/03/22 08:13:47;;;;;;;17.90;8.07;;;;;;;11.72;100.00;100490.56;5076839;28;20441;-69
2023/03/22 08:16:18;;;;;;;12.47;5.80;;;;;;;11.79;100.00;100485.53;5076885;28;20440;-70
2023/03/22 08:18:44;;;;;;;18.73;7.03;;;;;;;11.84;100.00;100498.19;5076574;28;20473;-68
2023/03/22 08:21:11;;;;;;;20.53;7.60;;;;;;;11.90;98.88;100494.22;5076634;28;20564;-69
2023/03/22 08:23:37;;;;;;;16.60;6.23;;;;;;;11.97;98.87;100491.88;5076732;28;20447;-68
2023/03/22 08:26:04;;;;;;;14.27;6.47;;;;;;;11.96;97.60;100490.28;5076605;28;20520;-68
2023/03/22 08:28:31;;;;;;;16.47;7.00;;;;;;;12.00;98.01;100490.44;5076545;28;20453;-68
2023/03/22 08:30:58;;;;;;;15.90;6.87;;;;;;;12.06;96.93;100489.19;5076441;28;20535;-68
2023/03/22 08:33:26;;;;;;;12.20;6.83;;;;;;;12.16;97.72;100478.03;5076527;28;20870;-68
2023/03/22 08:36:05;;;;;;;12.47;5.40;;;;;;;12.25;95.88;100475.34;5076161;28;20441;-68
2023/03/22 08:38:31;;;;;;;14.90;6.20;;;;;;;12.23;95.46;100483.03;5076317;28;20518;-68
2023/03/22 08:40:58;;;;;;;11.93;5.67;;;;;;;12.23;95.11;100481.13;5076470;28;20473;-68
2023/03/22 08:43:24;;;;;;;10.40;5.00;;;;;;;12.34;95.10;100481.63;5076297;28;20484;-69
2023/03/22 08:45:51;;;;;;;13.93;5.47;;;;;;;12.42;94.81;100483.56;5076188;28;20441;-70
2023/03/22 08:48:18;;;;;;;17.83;6.03;;;;;;;12.55;94.61;100474.47;5076088;28;20907;-71
2023/03/22 08:50:45;;;;;;;12.47;5.67;;;;;;;12.66;94.92;100468.72;5076087;28;20439;-67
2023/03/22 08:53:13;;;;;;;12.70;5.77;;;;;;;12.77;93.30;100459.16;5076088;28;20437;-67
2023/03/22 08:55:43;;;;;;;10.07;5.17;;;;;;;12.93;93.82;100460.31;5076064;28;20527;-68
2023/03/22 08:58:11;;;;;;;18.57;6.77;;;;;;;13.03;92.16;100459.19;5075861;28;20916;-68
2023/03/22 09:00:38;;;;;;;16.63;6.90;;;;;;;13.03;91.23;100456.47;5075811;28;20443;-67
2023/03/22 09:03:05;;;;;;;13.37;6.13;;;;;;;13.12;90.91;100458.03;5075541;28;20441;-67
2023/03/22 09:05:32;;;;;;;12.40;6.37;;;;;;;13.23;90.76;100458.53;5075392;28;20813;-67
2023/03/22 09:08:00;;;;;;;12.93;5.80;;;;;;;13.34;90.58;100459.03;5075661;28;20556;-68
2023/03/22 09:10:27;;;;;;;14.93;5.20;;;;;;;13.40;89.20;100455.00;5075733;28;20442;-68
2023/03/22 09:12:54;;;;;;;14.07;6.00;;;;;;;13.45;87.81;100445.88;5075638;28;20884;-68
2023/03/22 09:15:21;;;;;;;11.57;5.10;;;;;;;13.36;87.61;100443.16;5075383;28;20532;-68
2023/03/22 09:17:47;;;;;;;11.47;4.90;;;;;;;13.50;88.99;100442.97;5074949;28;20473;-68
2023/03/22 09:20:14;;;;;;;17.63;5.40;;;;;;;13.63;86.55;100439.25;5075609;28;20437;-69
2023/03/22 09:22:40;;;;;;;12.53;5.33;;;;;;;13.72;86.00;100450.91;5075207;28;20487;-68
2023/03/22 09:25:09;;;;;;;11.20;5.00;;;;;;;13.94;87.04;100447.13;5075501;28;20481;-68
2023/03/22 09:27:36;;;;;;;13.80;4.50;;;;;;;14.08;87.41;100452.41;5075392;28;20461;-68
2023/03/22 09:30:03;;;;;;;11.40;4.70;;;;;;;14.18;85.32;100460.19;5075383;28;20528;-68
2023/03/22 09:32:29;;;;;;;13.03;5.87;;;;;;;14.06;82.34;100454.63;5075378;28;20487;-68
2023/03/22 09:34:56;;;;;;;11.33;5.40;;;;;;;14.10;83.38;100450.13;5075286;28;20437;-68
2023/03/22 09:37:29;;;;;;;10.87;4.90;;;;;;;14.09;82.78;100443.88;5075188;28;20461;-69
2023/03/22 09:39:56;;;;;;;15.10;5.90;;;;;;;14.16;82.73;100435.19;5075265;28;20458;-68
2023/03/22 09:42:31;;;;;;;13.60;5.73;;;;;;;14.29;81.63;100442.31;5075106;28;20847;-68
2023/03/22 09:45:02;;;;;;;16.60;5.07;;;;;;;14.43;81.75;100433.09;5075380;28;20417;-69
2023/03/22 09:47:34;;;;;;;10.07;4.73;;;;;;;14.58;81.50;100435.28;5075231;28;20510;-69
2023/03/22 09:50:06;;;;;;;9.93;4.23;;;;;;;14.77;82.60;100424.72;5075097;28;20433;-68
2023/03/22 09:52:33;;;;;;;17.73;5.50;;;;;;;14.91;82.31;100420.91;5074993;28;20418;-68
2023/03/22 09:55:00;;;;;;;16.73;5.20;;;;;;;15.01;82.14;100423.25;5075193;28;20473;-68
2023/03/22 09:57:33;;;;;;;10.50;4.67;;;;;;;15.19;80.59;100423.91;5074776;28;20461;-69
2023/03/22 10:00:13;;;;;;;10.70;4.33;;;;;;;15.30;80.52;100414.13;5074876;28;20429;-68
2023/03/22 10:02:53;;;;;;;8.47;3.70;;;;;;;15.48;79.45;100420.22;5074387;28;20915;-68
2023/03/22 10:05:27;;;;;;;8.27;3.33;;;;;;;15.54;78.98;100416.16;5074439;28;20427;-68
2023/03/22 10:08:08;;;;;;;10.27;4.20;;;;;;;15.59;75.23;100413.19;5074597;28;20490;-68
2023/03/22 10:10:36;;;;;;;8.90;3.50;;;;;;;15.64;75.24;100411.06;5074403;28;20989;-68
2023/03/22 10:13:14;;;;;;;11.67;3.60;;;;;;;15.62;74.23;100410.56;5074727;28;20520;-69
2023/03/22 10:15:43;;;;;;;8.80;3.57;;;;;;;15.62;73.67;100417.94;5074535;28;20437;-69
2023/03/22 10:18:19;;;;;;;12.70;3.87;;;;;;;15.72;73.94;100409.38;5074027;28;20488;-68
2023/03/22 10:20:52;;;;;;;9.47;3.77;;;;;;;15.75;73.37;100402.41;5074539;28;20425;-68
2023/03/22 10:23:26;;;;;;;11.30;3.77;;;;;;;15.84;72.82;100395.69;5074484;28;20809;-68
2023/03/22 10:25:53;;;;;;;8.30;3.53;;;;;;;15.95;72.68;100385.13;5073962;28;20421;-68
2023/03/22 10:28:25;;;;;;;11.70;3.47;;;;;;;16.08;73.16;100372.25;5073472;28;20499;-69
2023/03/22 10:30:54;;;;;;;16.07;3.20;;;;;;;16.23;72.56;100374.28;5074197;28;20425;-70
2023/03/22 10:33:35;;;;;;;9.37;3.20;;;;;;;16.35;72.67;100366.06;5074227;28;20426;-70
2023/03/22 10:36:04;;;;;;;10.37;4.47;;;;;;;16.41;69.29;100363.88;5074153;28;20432;-70
2023/03/22 10:38:32;;;;;;;9.70;3.57;;;;;;;16.36;68.50;100358.66;5073986;28;20642;-70
2023/03/22 10:40:59;;;;;;;10.93;3.70;;;;;;;16.36;68.71;100361.38;5073946;28;20528;-69
2023/03/22 10:43:33;;;;;;;8.73;3.70;;;;;;;16.27;70.21;100353.31;5073995;28;20434;-69
2023/03/22 10:46:03;;;;;;;8.60;2.77;;;;;;;16.21;68.67;100354.72;5073927;28;20847;-70
2023/03/22 10:48:33;;;;;;;9.77;3.63;;;;;;;16.28;68.79;100348.66;5073895;28;20484;-70
2023/03/22 10:51:01;;;;;;;6.70;2.63;;;;;;;16.27;71.00;100349.78;5073954;28;20452;-67
2023/03/22 10:53:38;;;;;;;7.10;3.00;;;;;;;16.39;70.02;100345.09;5073900;28;20484;-70
2023/03/22 10:56:06;;;;;;;7.13;3.07;;;;;;;16.44;71.44;100352.25;5074046;28;20464;-70
2023/03/22 10:58:34;;;;;;;7.07;2.70;;;;;;;16.47;67.76;100358.97;5073648;28;20501;-69
2023/03/22 11:01:05;;;;;;;7.00;2.30;;;;;;;16.39;67.23;100360.72;5073834;28;20950;-69
2023/03/22 11:03:38;;;;;;;7.73;2.53;;;;;;;16.40;68.62;100348.63;5073849;28;20425;-70
2023/03/22 11:06:07;;;;;;;8.00;2.23;;;;;;;16.56;66.35;100351.44;5073766;28;20798;-70
2023/03/22 11:08:43;;;;;;;5.87;1.70;;;;;;;16.67;65.29;100349.00;5073501;28;20872;-70
2023/03/22 11:11:17;;;;;;;6.13;2.07;;;;;;;16.78;65.36;100352.88;5073970;28;20520;-69
2023/03/22 11:13:50;;;;;;;6.33;2.20;;;;;;;16.82;65.43;100357.28;5073591;28;20527;-70
2023/03/22 11:16:19;;;;;;;7.60;2.90;;;;;;;16.79;63.01;100357.97;5073561;28;20425;-70
2023/03/22 11:18:46;;;;;;;6.97;2.00;;;;;;;16.74;61.51;100352.75;5073299;28;20476;-69
2023/03/22 11:21:16;;;;;;;8.47;2.60;;;;;;;16.68;63.32;100351.38;5073062;28;20954;-69
2023/03/22 11:23:49;;;;;;;5.90;2.00;;;;;;;16.67;64.17;100354.47;5073319;28;20445;-69
2023/03/22 11:26:27;;;;;;;7.93;2.60;;;;;;;16.74;64.55;100360.19;5073638;28;20414;-69